Time;durP1;ratioP1;P1;durP2;ratioP2;P2;SDS_P1;SDS_P2;PMS_P1;PMS_P2;Temp;Humidity;BMP_temperature;BMP_pressure;BME280_temperature;BME280_humidity;BME280_pressure;Samples;Min_cycle;Max_cycle;Signal;HPM_P1;HPM_P2
2023/01/02 14:50:01;;;;;;;17.83;7.80;;;9.50;99.90;;;;;;5086328;28;20155;-65
2023/01/02 14:52:31;;;;;;;15.77;7.43;;;9.40;99.90;;;;;;5087162;28;20052;-66
2023/01/02 14:55:12;;;;;;;18.70;9.23;;;9.50;99.90;;;;;;5084815;28;20097;-67
2023/01/02 14:57:40;;;;;;;18.25;8.45;;;9.60;99.90;;;;;;5085801;28;20103;-67
2023/01/02 15:00:31;;;;;;;17.15;8.77;;;9.70;99.90;;;;;;5074768;28;20054;-66
2023/01/02 15:03:23;;;;;;;21.00;9.80;;;9.70;99.90;;;;;;5071894;28;20029;-66
2023/01/02 15:05:59;;;;;;;20.23;10.10;;;9.80;99.90;;;;;;5081925;28;20103;-66
2023/01/02 15:09:01;;;;;;;19.38;10.02;;;9.80;99.90;;;;;;5106132;28;20034;-66
2023/01/02 15:14:16;;;;;;;19.27;10.82;;;9.90;99.90;;;;;;5107476;28;20093;-66
2023/01/02 15:16:48;;;;;;;18.30;9.70;;;9.90;99.90;;;;;;5108339;28;20015;-66
2023/01/02 15:19:19;;;;;;;17.67;9.88;;;9.90;99.90;;;;;;5089155;28;20043;-66
2023/01/02 15:21:45;;;;;;;16.95;9.30;;;9.90;99.90;;;;;;5086361;28;20033;-66
2023/01/02 15:24:24;;;;;;;20.40;9.90;;;9.90;99.90;;;;;;5086921;28;20384;-67
2023/01/02 15:26:50;;;;;;;16.80;8.90;;;9.80;99.90;;;;;;5087458;28;20067;-67
2023/01/02 15:29:25;;;;;;;18.52;10.15;;;9.80;99.90;;;;;;5086879;28;20117;-66
2023/01/02 15:31:58;;;;;;;19.23;9.90;;;9.70;99.90;;;;;;5086767;28;20210;-66
2023/01/02 15:34:33;;;;;;;17.40;9.57;;;9.70;99.90;;;;;;5087898;28;20439;-66
2023/01/02 15:37:05;;;;;;;19.73;9.98;;;9.70;99.90;;;;;;5086326;28;20028;-66
2023/01/02 15:39:35;;;;;;;18.48;9.50;;;9.60;99.90;;;;;;5106536;28;20027;-66
2023/01/02 15:42:02;;;;;;;16.95;9.15;;;9.70;99.90;;;;;;5099737;28;20048;-66
2023/01/02 15:47:18;;;;;;;13.65;8.20;;;9.50;99.90;;;;;;5109162;28;20144;-66
2023/01/02 15:49:45;;;;;;;16.63;9.00;;;9.50;99.90;;;;;;5101365;28;20051;-66
2023/01/02 15:52:25;;;;;;;16.63;9.10;;;9.40;99.90;;;;;;5106110;28;20026;-66
2023/01/02 15:54:52;;;;;;;16.40;9.10;;;9.30;99.90;;;;;;5108208;28;20027;-67
2023/01/02 15:57:21;;;;;;;14.60;8.32;;;9.20;99.90;;;;;;5106634;28;20058;-66
2023/01/02 15:59:47;;;;;;;15.10;8.68;;;9.20;99.90;;;;;;5091357;28;20064;-67
2023/01/02 16:02:38;;;;;;;18.83;8.93;;;9.10;99.90;;;;;;5073459;28;20067;-67
2023/01/02 16:05:22;;;;;;;15.63;7.90;;;9.10;99.90;;;;;;5072997;28;20027;-66
2023/01/02 16:07:57;;;;;;;16.60;8.10;;;9.00;99.90;;;;;;5092104;28;20073;-66
2023/01/02 16:10:28;;;;;;;16.92;7.82;;;8.90;99.90;;;;;;5092934;28;20028;-67
2023/01/02 16:12:59;;;;;;;16.50;8.20;;;9.00;99.90;;;;;;5092315;28;20031;-67
2023/01/02 16:15:33;;;;;;;17.98;8.70;;;9.00;99.90;;;;;;5094350;28;20023;-66
2023/01/02 16:18:00;;;;;;;15.23;8.38;;;8.90;99.90;;;;;;5093272;28;20089;-66
2023/01/02 16:20:27;;;;;;;18.15;8.98;;;9.00;99.90;;;;;;5072760;28;20023;-67
2023/01/02 16:22:58;;;;;;;16.27;7.85;;;8.90;99.90;;;;;;5072763;28;20085;-66
2023/01/02 16:25:31;;;;;;;14.20;7.80;;;8.90;99.90;;;;;;5090809;28;20440;-66
2023/01/02 16:28:05;;;;;;;18.23;9.25;;;8.80;99.90;;;;;;5091938;28;20032;-66
2023/01/02 16:30:33;;;;;;;15.48;8.50;;;8.80;99.90;;;;;;5075331;28;20032;-66
2023/01/02 16:33:01;;;;;;;15.25;7.80;;;8.80;99.90;;;;;;5072200;28;20016;-65
2023/01/02 16:35:29;;;;;;;15.07;8.13;;;8.80;99.90;;;;;;5074311;28;20370;-65
2023/01/02 16:37:56;;;;;;;17.52;9.30;;;8.80;99.90;;;;;;5072989;28;20052;-65
2023/01/02 16:40:29;;;;;;;13.77;8.07;;;8.80;99.90;;;;;;5073070;28;20017;-65
2023/01/02 16:43:02;;;;;;;15.00;8.75;;;8.70;99.90;;;;;;5073401;28;20024;-67
2023/01/02 16:45:30;;;;;;;17.67;8.75;;;8.80;99.90;;;;;;5073164;28;20025;-65
2023/01/02 16:47:57;;;;;;;17.33;8.60;;;8.70;99.90;;;;;;5073311;28;20048;-65
2023/01/02 16:50:25;;;;;;;15.95;8.65;;;8.80;99.90;;;;;;5073810;28;20024;-64
2023/01/02 16:52:55;;;;;;;14.75;8.05;;;8.90;99.90;;;;;;5072535;28;20020;-64
2023/01/02 16:55:22;;;;;;;17.65;7.75;;;9.00;99.90;;;;;;5067953;28;20057;-64
2023/01/02 16:57:49;;;;;;;18.20;8.15;;;9.00;99.90;;;;;;5053138;28;20017;-67
2023/01/02 17:00:17;;;;;;;16.65;9.15;;;9.10;99.90;;;;;;5052967;28;20024;-66
2023/01/02 17:02:43;;;;;;;16.63;8.98;;;9.20;99.90;;;;;;5051459;28;20044;-67
2023/01/02 17:05:21;;;;;;;17.60;8.65;;;9.10;99.90;;;;;;5051659;28;20032;-65
2023/01/02 17:07:47;;;;;;;16.35;7.78;;;9.20;99.90;;;;;;5050748;28;20079;-65
2023/01/02 17:10:13;;;;;;;14.82;8.43;;;9.20;99.90;;;;;;5072486;28;20024;-65
2023/01/02 17:12:39;;;;;;;17.27;8.25;;;9.20;99.90;;;;;;5091773;28;20038;-66
2023/01/02 17:15:06;;;;;;;13.20;7.63;;;9.20;99.90;;;;;;5091118;28;20111;-65
2023/01/02 17:17:32;;;;;;;14.15;8.25;;;9.20;99.90;;;;;;5088973;28;20017;-65
2023/01/02 17:19:57;;;;;;;15.23;8.38;;;9.10;99.90;;;;;;5073135;28;20033;-66
2023/01/02 17:22:23;;;;;;;17.38;8.52;;;9.10;99.90;;;;;;5073008;28;20048;-65
2023/01/02 17:24:49;;;;;;;14.73;8.20;;;9.00;99.90;;;;;;5072603;28;20116;-66
2023/01/02 17:27:15;;;;;;;14.07;7.93;;;9.00;99.90;;;;;;5075316;28;20066;-65
2023/01/02 17:29:40;;;;;;;15.32;7.68;;;9.00;99.90;;;;;;5092744;28;20028;-66
2023/01/02 17:32:06;;;;;;;14.77;8.18;;;9.00;99.90;;;;;;5092973;28;20718;-64
2023/01/02 17:34:32;;;;;;;13.35;8.02;;;9.00;99.90;;;;;;5090430;28;20032;-63
2023/01/02 17:36:58;;;;;;;14.50;7.25;;;9.00;99.90;;;;;;5092509;28;20028;-64
2023/01/02 17:39:24;;;;;;;19.08;8.38;;;9.00;99.90;;;;;;5089807;28;20036;-63
2023/01/02 17:41:50;;;;;;;17.00;8.00;;;8.90;99.90;;;;;;5072027;28;20024;-67
2023/01/02 17:44:19;;;;;;;16.08;8.90;;;8.90;99.90;;;;;;5072523;28;20431;-64
2023/01/02 17:46:45;;;;;;;15.73;8.20;;;8.90;99.90;;;;;;5086984;28;20115;-63
2023/01/02 17:49:11;;;;;;;14.65;8.70;;;8.80;99.90;;;;;;5089978;28;20044;-66
2023/01/02 17:51:37;;;;;;;13.57;7.72;;;8.80;99.90;;;;;;5092528;28;20476;-66
2023/01/02 17:54:03;;;;;;;17.17;8.52;;;8.70;99.90;;;;;;5090805;28;20031;-67
2023/01/02 17:56:29;;;;;;;15.68;9.13;;;8.70;99.90;;;;;;5089263;28;20017;-64
2023/01/02 17:58:55;;;;;;;16.63;8.52;;;8.70;99.90;;;;;;5089952;28;20028;-63
2023/01/02 18:01:21;;;;;;;14.80;8.88;;;8.60;99.90;;;;;;5070653;28;20021;-67
2023/01/02 18:03:47;;;;;;;19.25;8.48;;;8.60;99.90;;;;;;5072392;28;20033;-62
2023/01/02 18:06:14;;;;;;;16.20;8.90;;;8.60;99.90;;;;;;5083462;28;20099;-63
2023/01/02 18:08:40;;;;;;;17.83;9.30;;;8.50;99.90;;;;;;5084788;28;20385;-65
2023/01/02 18:11:08;;;;;;;14.98;9.15;;;8.50;99.90;;;;;;5091315;28;20462;-66
2023/01/02 18:13:39;;;;;;;14.88;8.25;;;8.40;99.90;;;;;;5091788;28;20028;-65
2023/01/02 18:16:32;;;;;;;15.82;7.93;;;8.40;99.90;;;;;;5091932;28;20035;-65
2023/01/02 18:19:00;;;;;;;15.07;8.23;;;8.30;99.90;;;;;;5088614;28;20036;-64
2023/01/02 18:21:29;;;;;;;15.35;8.95;;;8.30;99.90;;;;;;5091556;28;20530;-67
2023/01/02 18:24:01;;;;;;;18.23;9.30;;;8.20;99.90;;;;;;5090888;28;20051;-66
2023/01/02 18:26:29;;;;;;;15.65;8.68;;;8.20;99.90;;;;;;5091057;28;20202;-63
2023/01/02 18:28:58;;;;;;;16.20;7.70;;;8.20;99.90;;;;;;5072466;28;20036;-63
2023/01/02 18:31:28;;;;;;;18.23;8.30;;;8.20;99.90;;;;;;5071213;28;20039;-62
2023/01/02 18:34:00;;;;;;;13.95;8.05;;;8.10;99.90;;;;;;5083536;28;20051;-63
2023/01/02 18:36:25;;;;;;;16.35;8.85;;;8.10;99.90;;;;;;5092296;28;20099;-65
2023/01/02 18:39:22;;;;;;;19.23;9.45;;;8.10;99.90;;;;;;5090771;28;20054;-64
2023/01/02 18:41:48;;;;;;;16.65;8.45;;;8.10;99.90;;;;;;5085827;28;20040;-63
2023/01/02 18:44:23;;;;;;;14.63;7.10;;;8.00;99.90;;;;;;5089298;28;20023;-63
2023/01/02 18:46:51;;;;;;;16.13;7.63;;;8.00;99.90;;;;;;5086672;28;20101;-63
2023/01/02 18:49:25;;;;;;;15.75;7.50;;;7.90;99.90;;;;;;5088507;28;20443;-67
2023/01/02 18:52:00;;;;;;;16.13;8.70;;;7.80;99.90;;;;;;5087323;28;20358;-65
2023/01/02 18:54:31;;;;;;;16.25;8.23;;;7.80;99.90;;;;;;5089762;28;20038;-66
2023/01/02 18:57:07;;;;;;;13.10;7.33;;;7.70;99.90;;;;;;5089875;28;20028;-66
2023/01/02 18:59:33;;;;;;;15.23;7.93;;;7.70;99.90;;;;;;5087960;28;20020;-66
2023/01/02 19:02:01;;;;;;;14.10;7.85;;;7.70;99.90;;;;;;5090023;28;20111;-64
2023/01/02 19:04:38;;;;;;;15.88;7.30;;;7.70;99.90;;;;;;5052233;28;20468;-64
